Time;durP1;ratioP1;P1;durP2;ratioP2;P2;SDS_P1;SDS_P2;PMS_P1;PMS_P2;Temp;Humidity;BMP_temperature;BMP_pressure;BME280_temperature;BME280_humidity;BME280_pressure;Samples;Min_cycle;Max_cycle;Signal;HPM_P1;HPM_P2
2023/03/04 00:00:14;;;;;;;38.67;22.58;;;;;;;5.91;89.98;101022.22;4961704;28;20224;-88
2023/03/04 00:02:40;;;;;;;37.20;22.50;;;;;;;5.86;90.02;101009.25;4959223;28;20047;-89
2023/03/04 00:05:09;;;;;;;37.47;22.38;;;;;;;6.07;89.83;101044.09;4975982;28;20034;-90
2023/03/04 00:07:41;;;;;;;36.90;21.50;;;;;;;5.87;89.72;101010.94;4959160;28;20089;-91
2023/03/04 00:10:08;;;;;;;38.00;22.65;;;;;;;5.96;89.42;101003.22;4974893;28;20145;-89
2023/03/04 00:12:37;;;;;;;39.47;23.13;;;;;;;6.09;88.75;101004.78;4940569;28;20090;-88
2023/03/04 00:15:08;;;;;;;38.25;22.33;;;;;;;6.03;89.03;101037.28;4973737;28;20050;-91
2023/03/04 00:17:36;;;;;;;39.22;23.38;;;;;;;6.00;89.09;101034.03;4972880;28;20460;-89
2023/03/04 00:20:02;;;;;;;41.20;22.80;;;;;;;5.95;88.58;101006.84;4989902;28;20063;-89
2023/03/04 00:22:32;;;;;;;45.85;23.77;;;;;;;6.26;88.33;101050.63;4960961;28;20050;-89
2023/03/04 00:24:59;;;;;;;41.13;24.02;;;;;;;5.89;88.58;101017.00;4961903;28;20136;-90
2023/03/04 00:27:25;;;;;;;39.20;23.17;;;;;;;5.97;88.46;101023.56;4975273;28;20408;-91
2023/03/04 00:29:54;;;;;;;44.63;23.40;;;;;;;6.11;88.36;101029.53;4942071;28;20054;-90
2023/03/04 00:32:20;;;;;;;39.88;23.63;;;;;;;6.33;88.28;101058.00;4957468;28;20271;-91
2023/03/04 00:34:46;;;;;;;;;;;;;;;6.41;88.00;101067.22;4958474;28;20105;-90
2023/03/04 00:37:11;;;;;;;36.92;20.95;;;;;;;6.15;87.72;101034.63;4980394;28;19902;-90
2023/03/04 00:39:37;;;;;;;38.33;23.38;;;;;;;6.00;88.69;101048.22;4980104;28;20106;-91
2023/03/04 00:42:09;;;;;;;41.33;22.70;;;;;;;6.16;88.57;101052.31;4946876;28;20055;-90
2023/03/04 00:44:35;;;;;;;36.72;22.60;;;;;;;6.07;88.30;101032.56;4958194;28;20335;-89
2023/03/04 00:47:03;;;;;;;40.20;22.88;;;;;;;6.27;88.69;101057.66;4959782;28;20054;-90
2023/03/04 00:49:31;;;;;;;42.30;23.83;;;;;;;5.64;90.00;101018.13;4974609;28;20121;-90
2023/03/04 00:52:00;;;;;;;41.83;23.27;;;;;;;5.84;90.70;101053.88;4974031;28;20038;-92
2023/03/04 00:54:27;;;;;;;45.45;24.75;;;;;;;5.57;91.34;101013.34;4974367;28;20054;-90
2023/03/04 00:56:54;;;;;;;44.70;24.45;;;;;;;5.79;91.38;101032.06;4956605;28;20049;-89
2023/03/04 00:59:20;;;;;;;45.17;24.58;;;;;;;5.75;91.07;101016.41;4957132;28;20047;-91
2023/03/04 01:01:46;;;;;;;44.45;25.05;;;;;;;5.75;91.13;101009.25;4922406;29;20119;-88
2023/03/04 01:04:13;;;;;;;44.60;25.25;;;;;;;5.85;91.12;101028.03;4973862;28;20448;-89
2023/03/04 01:06:40;;;;;;;43.17;24.08;;;;;;;5.72;91.12;100986.31;4938019;29;20073;-90
2023/03/04 01:09:07;;;;;;;45.45;24.90;;;;;;;5.65;91.41;100985.13;4922776;28;20050;-90
2023/03/04 01:11:36;;;;;;;43.45;24.10;;;;;;;5.90;91.48;101024.06;4956163;28;20043;-89
2023/03/04 01:14:04;;;;;;;42.78;24.02;;;;;;;5.98;91.01;101020.81;4959484;28;20201;-90
2023/03/04 01:16:31;;;;;;;44.50;23.48;;;;;;;5.87;91.03;101002.94;4925353;28;20415;-90
2023/03/04 01:18:57;;;;;;;42.28;23.92;;;;;;;5.82;90.85;100993.59;4974405;28;20098;-90
2023/03/04 01:21:36;;;;;;;42.30;23.98;;;;;;;5.93;90.51;100988.25;4961069;28;20035;-90
2023/03/04 01:24:06;;;;;;;38.72;22.17;;;;;;;6.04;89.80;100990.09;4978767;28;20090;-92
2023/03/04 01:26:31;;;;;;;37.70;21.98;;;;;;;6.10;89.41;101001.13;4978580;28;20062;-91
2023/03/04 01:29:06;;;;;;;38.95;21.80;;;;;;;6.04;89.62;100992.75;4969062;28;20043;-91
2023/03/04 01:31:32;;;;;;;39.20;21.38;;;;;;;6.27;89.26;101009.59;4961189;29;20066;-89
2023/03/04 01:33:58;;;;;;;37.33;21.55;;;;;;;6.15;88.67;100983.88;4950969;29;20035;-91
2023/03/04 01:36:25;;;;;;;34.88;20.52;;;;;;;6.26;88.05;100998.06;4963768;28;20042;-90
2023/03/04 01:38:53;;;;;;;37.33;20.58;;;;;;;6.10;87.71;100977.09;4929880;29;20130;-90
2023/03/04 01:41:24;;;;;;;36.42;20.52;;;;;;;5.96;88.17;100963.19;4960182;28;20062;-90
2023/03/04 01:43:51;;;;;;;37.05;21.20;;;;;;;5.95;88.87;100980.16;4940285;28;20055;-90
2023/03/04 01:46:16;;;;;;;33.45;19.95;;;;;;;6.12;88.29;100982.31;4975337;28;20035;-90
2023/03/04 01:48:43;;;;;;;35.47;20.88;;;;;;;6.18;88.37;100987.19;4957020;28;20125;-90
2023/03/04 01:51:18;;;;;;;34.55;21.25;;;;;;;6.23;88.68;101011.69;4956648;28;20085;-90
2023/03/04 01:53:46;;;;;;;34.80;19.90;;;;;;;5.93;88.51;100966.91;4942702;28;20039;-89
2023/03/04 01:56:19;;;;;;;36.50;21.23;;;;;;;6.20;88.42;101001.22;4961081;28;20191;-90
2023/03/04 01:59:10;;;;;;;32.92;19.90;;;;;;;6.06;88.14;100973.00;4972441;28;20043;-92
2023/03/04 02:01:37;;;;;;;33.50;19.17;;;;;;;6.13;88.00;100974.19;4973204;28;20038;-89
2023/03/04 02:04:04;;;;;;;31.35;18.75;;;;;;;6.27;87.77;100990.91;4971796;28;20054;-90
2023/03/04 02:06:32;;;;;;;36.55;19.83;;;;;;;6.08;87.54;100964.84;4954874;28;20043;-91
2023/03/04 02:09:04;;;;;;;34.05;19.45;;;;;;;6.09;87.66;100966.56;4955864;28;20035;-91
2023/03/04 02:11:30;;;;;;;33.40;19.60;;;;;;;6.42;86.80;100999.50;4933962;28;20043;-91
2023/03/04 02:13:58;;;;;;;;;;;;;;;6.44;86.47;101002.88;4950807;28;20066;-92
2023/03/04 02:16:27;;;;;;;33.15;18.13;;;;;;;6.13;86.77;100957.31;4972417;28;19961;-90
2023/03/04 02:19:15;;;;;;;32.15;18.77;;;;;;;6.32;86.37;100980.69;4971200;28;20523;-90
2023/03/04 02:21:45;;;;;;;33.25;18.67;;;;;;;6.47;86.04;100990.13;4975525;28;20043;-90
2023/03/04 02:24:29;;;;;;;34.83;19.40;;;;;;;6.47;86.11;100989.28;4954830;28;20045;-91
2023/03/04 02:27:01;;;;;;;33.42;19.33;;;;;;;6.26;86.53;100973.19;4960250;28;20063;-91
2023/03/04 02:29:30;;;;;;;33.72;19.63;;;;;;;6.25;86.42;100961.66;4956448;28;20448;-91
2023/03/04 02:31:58;;;;;;;32.42;19.33;;;;;;;6.27;86.26;100953.50;4972176;28;20042;-90
2023/03/04 02:34:35;;;;;;;33.58;19.85;;;;;;;6.24;86.20;100962.63;4952931;28;20055;-91
2023/03/04 02:37:02;;;;;;;32.90;19.10;;;;;;;6.40;86.12;100986.25;4974586;28;20042;-92
2023/03/04 02:39:43;;;;;;;31.88;18.45;;;;;;;6.37;85.56;100962.47;4967427;28;20107;-91
2023/03/04 02:42:11;;;;;;;32.42;19.05;;;;;;;6.38;85.46;100982.88;4961475;28;20049;-91
2023/03/04 02:44:39;;;;;;;32.60;18.67;;;;;;;6.45;86.09;101010.75;4955997;28;20043;-93
2023/03/04 02:47:06;;;;;;;30.30;19.52;;;;;;;6.30;85.13;100962.13;4945027;28;20090;-92
2023/03/04 02:49:35;;;;;;;37.85;19.20;;;;;;;6.16;85.58;100977.56;4958706;28;20049;-91
2023/03/04 02:52:29;;;;;;;34.47;19.38;;;;;;;6.27;85.76;100997.06;4956653;28;20043;-91
2023/03/04 02:54:56;;;;;;;31.20;18.38;;;;;;;5.98;86.59;100979.94;4971126;28;20042;-93
2023/03/04 02:57:23;;;;;;;35.35;20.60;;;;;;;6.09;86.59;100982.59;4953616;28;20034;-92
2023/03/04 02:59:49;;;;;;;35.00;20.13;;;;;;;6.15;86.53;100976.72;4952678;28;20043;-92
2023/03/04 03:02:25;;;;;;;36.50;19.83;;;;;;;6.24;86.75;101004.50;4933555;28;20488;-92
2023/03/04 03:04:53;;;;;;;34.42;19.48;;;;;;;6.27;86.37;100990.91;4958305;28;20081;-91
2023/03/04 03:07:25;;;;;;;32.20;19.23;;;;;;;6.23;86.59;100989.47;4940980;28;20110;-90
2023/03/04 03:09:52;;;;;;;35.50;19.33;;;;;;;6.28;86.54;101003.28;4958386;28;20062;-91
2023/03/04 03:12:21;;;;;;;32.65;19.10;;;;;;;6.24;86.61;101001.84;4976124;28;20053;-90
2023/03/04 03:14:48;;;;;;;33.72;19.35;;;;;;;6.12;86.97;100991.16;4942532;28;20066;-91
2023/03/04 03:17:15;;;;;;;35.72;20.35;;;;;;;6.08;87.20;100984.38;4952745;28;20047;-89
2023/03/04 03:19:41;;;;;;;34.60;20.58;;;;;;;6.18;88.01;101002.31;4959252;28;20054;-88
2023/03/04 03:22:07;;;;;;;;;;;;;;;6.24;88.15;101025.88;4951484;28;20050;-88
2023/03/04 03:24:34;;;;;;;36.13;19.50;;;;;;;5.98;88.22;100978.09;4958406;28;19937;-89
2023/03/04 03:26:59;;;;;;;33.67;19.30;;;;;;;6.25;87.55;101006.19;4947829;28;20077;-89
2023/03/04 03:29:28;;;;;;;36.67;20.40;;;;;;;5.88;88.61;100998.47;4958434;28;20429;-90
2023/03/04 03:32:01;;;;;;;34.55;20.00;;;;;;;6.02;88.26;100992.91;4942328;28;20039;-90
2023/03/04 03:34:28;;;;;;;34.30;19.83;;;;;;;6.31;87.95;101014.56;4961953;28;20488;-91
2023/03/04 03:36:53;;;;;;;36.75;21.25;;;;;;;6.20;88.00;100992.38;4942275;28;20043;-90
2023/03/04 03:39:25;;;;;;;34.85;20.35;;;;;;;6.25;87.76;100988.38;4945856;28;20121;-91
2023/03/04 03:41:54;;;;;;;35.40;20.48;;;;;;;6.24;87.88;100992.00;4956476;28;20135;-92
2023/03/04 03:44:21;;;;;;;38.55;21.58;;;;;;;6.32;88.13;100994.03;4990305;28;20027;-90
2023/03/04 03:46:50;;;;;;;37.53;21.10;;;;;;;6.32;88.21;100986.91;4975094;28;20042;-90
2023/03/04 03:49:16;;;;;;;33.25;19.83;;;;;;;6.38;88.07;100992.69;4976079;28;20117;-91
2023/03/04 03:51:44;;;;;;;33.55;19.55;;;;;;;6.58;87.23;100997.25;4986266;28;20377;-91
2023/03/04 03:54:13;;;;;;;31.95;19.30;;;;;;;6.72;86.35;101010.31;4984966;28;20051;-91
2023/03/04 03:56:40;;;;;;;33.65;19.60;;;;;;;6.33;87.16;100985.06;4977779;28;20109;-91
2023/03/04 03:59:08;;;;;;;33.65;19.20;;;;;;;6.31;87.08;100969.16;4973867;28;20107;-91
2023/03/04 04:01:46;;;;;;;33.08;18.63;;;;;;;6.45;87.16;101009.91;4983580;28;20047;-91
2023/03/04 04:04:12;;;;;;;37.05;18.48;;;;;;;6.37;87.20;101002.53;4989790;28;20124;-91
2023/03/04 04:06:39;;;;;;;31.40;18.65;;;;;;;6.37;88.20;101013.22;4964064;28;20096;-91
2023/03/04 04:09:07;;;;;;;34.67;18.70;;;;;;;6.23;88.24;100989.47;4982376;28;20063;-91
2023/03/04 04:11:32;;;;;;;31.30;18.65;;;;;;;6.35;87.56;100993.81;4992343;28;20053;-90
2023/03/04 04:14:02;;;;;;;35.35;19.60;;;;;;;6.51;87.67;101020.97;4984869;28;20062;-93
2023/03/04 04:16:29;;;;;;;32.45;18.60;;;;;;;6.54;87.80;101010.00;4986694;28;20133;-90
2023/03/04 04:18:54;;;;;;;35.92;19.63;;;;;;;6.44;88.97;101013.53;4941588;28;20094;-92
2023/03/04 04:21:21;;;;;;;34.42;19.75;;;;;;;6.45;88.51;101015.25;4953313;28;20039;-89
2023/03/04 04:23:52;;;;;;;32.42;19.42;;;;;;;6.29;89.05;101002.31;4974206;28;20049;-90
2023/03/04 04:26:22;;;;;;;38.03;20.15;;;;;;;6.39;88.23;100994.38;4957290;28;20129;-89
2023/03/04 04:28:48;;;;;;;34.33;20.88;;;;;;;6.45;87.92;101002.75;4954858;28;20035;-89
2023/03/04 04:31:14;;;;;;;38.45;20.88;;;;;;;6.30;88.14;100996.00;4970192;28;20066;-91
2023/03/04 04:34:32;;;;;;;41.60;20.92;;;;;;;6.48;88.69;101031.03;4965702;28;20074;-92
2023/03/04 04:36:59;;;;;;;36.53;20.48;;;;;;;6.33;88.03;101012.63;4984350;28;20209;-94
2023/03/04 04:39:26;;;;;;;35.60;20.23;;;;;;;6.43;88.34;101011.88;4980483;28;20102;-91
2023/03/04 04:41:55;;;;;;;38.20;21.30;;;;;;;6.32;88.33;101010.06;4964882;28;20050;-89
2023/03/04 04:44:23;;;;;;;36.17;19.92;;;;;;;6.20;88.84;101011.06;4990748;28;20085;-90
2023/03/04 04:46:49;;;;;;;39.88;21.23;;;;;;;6.20;89.10;101011.06;4956096;28;20048;-92
2023/03/04 04:49:18;;;;;;;42.33;21.42;;;;;;;6.07;89.39;100995.19;4939413;28;20047;-90
2023/03/04 04:51:46;;;;;;;37.15;21.40;;;;;;;6.29;89.55;101037.03;4926446;28;20059;-89
2023/03/04 04:54:12;;;;;;;43.20;22.65;;;;;;;6.18;90.06;101015.66;4940395;28;20035;-88
2023/03/04 04:56:38;;;;;;;39.22;21.83;;;;;;;6.29;89.62;101050.38;4936382;29;20492;-90
2023/03/04 04:59:04;;;;;;;40.58;21.63;;;;;;;6.23;89.99;101054.41;4938727;28;20045;-89
2023/03/04 05:01:32;;;;;;;42.83;23.00;;;;;;;6.25;90.21;101046.25;4923847;28;20451;-89
2023/03/04 05:03:57;;;;;;;39.08;21.63;;;;;;;6.44;89.41;101056.28;4938970;28;20046;-89
2023/03/04 05:06:23;;;;;;;41.38;21.70;;;;;;;6.30;89.70;101038.75;4956317;28;20050;-91
2023/03/04 05:08:51;;;;;;;37.70;21.63;;;;;;;6.36;89.17;101038.22;4924521;28;20050;-89
2023/03/04 05:11:23;;;;;;;39.10;21.50;;;;;;;6.54;88.63;101073.28;4957341;28;20580;-90
2023/03/04 05:13:50;;;;;;;39.60;22.10;;;;;;;6.23;88.77;101032.19;4957311;28;20080;-91
2023/03/04 05:16:18;;;;;;;36.53;22.25;;;;;;;6.38;88.68;101068.31;4984392;28;20043;-91
2023/03/04 05:18:47;;;;;;;40.17;21.63;;;;;;;6.46;88.63;101092.59;4968379;28;20129;-91
2023/03/04 05:21:16;;;;;;;37.35;21.48;;;;;;;6.31;88.25;101061.78;4957218;28;20113;-91
2023/03/04 05:23:42;;;;;;;35.03;20.40;;;;;;;6.28;88.50;101062.03;4973073;28;20058;-91
2023/03/04 05:26:08;;;;;;;41.67;22.90;;;;;;;6.41;88.81;101089.44;4940946;28;20051;-90
2023/03/04 05:28:35;;;;;;;40.75;21.95;;;;;;;6.24;89.41;101077.44;4938796;28;20043;-91
2023/03/04 05:31:03;;;;;;;34.85;20.15;;;;;;;6.36;88.76;101082.78;4955614;28;20094;-92
2023/03/04 05:33:30;;;;;;;39.00;21.25;;;;;;;6.41;88.95;101100.13;4941568;28;20096;-88
2023/03/04 05:35:57;;;;;;;37.08;21.08;;;;;;;6.32;89.37;101090.16;4957230;28;20057;-91
2023/03/04 05:38:27;;;;;;;37.40;21.13;;;;;;;6.28;89.16;101073.56;4955417;28;20038;-91
2023/03/04 05:40:58;;;;;;;38.35;20.63;;;;;;;6.27;88.62;101063.84;4958348;28;20046;-91
2023/03/04 05:43:28;;;;;;;35.83;19.58;;;;;;;6.53;88.41;101104.50;4955427;28;20049;-91
2023/03/04 05:45:55;;;;;;;37.40;21.15;;;;;;;6.47;88.47;101086.28;4939705;28;20039;-91
2023/03/04 05:48:23;;;;;;;39.25;20.83;;;;;;;6.46;88.34;101091.72;4957410;28;20105;-91
2023/03/04 05:50:54;;;;;;;38.00;21.08;;;;;;;6.20;88.58;101048.44;4939310;28;20050;-91
2023/03/04 05:53:21;;;;;;;35.25;20.00;;;;;;;6.54;87.82;101074.13;4939446;28;20134;-91
2023/03/04 05:55:49;;;;;;;35.28;20.17;;;;;;;6.53;87.66;101077.78;4971158;28;20042;-91
2023/03/04 05:58:14;;;;;;;35.70;19.65;;;;;;;6.44;87.75;101065.16;4955973;28;20057;-93
2023/03/04 06:00:42;;;;;;;33.55;19.40;;;;;;;6.70;87.69;101080.91;4954606;28;20043;-91
2023/03/04 06:03:20;;;;;;;34.38;19.92;;;;;;;6.70;87.14;101067.53;4940788;28;20038;-90
2023/03/04 06:05:47;;;;;;;39.30;20.38;;;;;;;6.62;87.71;101081.50;4957968;28;20051;-88
2023/03/04 06:08:14;;;;;;;36.05;20.75;;;;;;;6.57;87.35;101075.69;4958617;28;20062;-90
2023/03/04 06:10:42;;;;;;;38.22;20.80;;;;;;;6.55;87.87;101065.16;4955058;28;20076;-92
2023/03/04 06:13:07;;;;;;;37.15;21.10;;;;;;;6.47;87.92;101054.22;4956615;28;20130;-92
2023/03/04 06:15:37;;;;;;;35.50;20.55;;;;;;;6.72;87.78;101071.78;4940147;29;20067;-93
2023/03/04 06:18:10;;;;;;;38.80;22.08;;;;;;;6.66;87.75;101084.78;4945535;28;20526;-91
2023/03/04 06:20:44;;;;;;;35.83;20.70;;;;;;;6.72;87.21;101060.25;4943142;28;20125;-90
2023/03/04 06:23:15;;;;;;;37.38;20.52;;;;;;;7.01;86.36;101084.56;4954728;29;20035;-91
2023/03/04 06:25:45;;;;;;;38.80;20.50;;;;;;;6.84;86.34;101079.78;4967460;28;20492;-91
2023/03/04 06:28:14;;;;;;;36.00;20.00;;;;;;;6.98;86.40;101096.34;4956491;28;20117;-92
2023/03/04 06:30:41;;;;;;;34.08;20.42;;;;;;;7.14;85.37;101068.31;4967253;28;20097;-92
2023/03/04 06:33:09;;;;;;;36.72;20.95;;;;;;;7.16;85.48;101074.41;4948993;28;20042;-89
2023/03/04 06:35:36;;;;;;;34.60;19.42;;;;;;;7.12;85.25;101062.28;4973161;28;20049;-91
2023/03/04 06:38:24;;;;;;;37.40;19.88;;;;;;;7.34;84.57;101062.16;4957321;28;20066;-91
2023/03/04 06:40:56;;;;;;;33.38;18.77;;;;;;;7.12;83.56;101055.09;4956998;28;20479;-91
2023/03/04 06:43:27;;;;;;;36.03;19.75;;;;;;;7.15;83.79;101059.34;4938686;29;20089;-90
2023/03/04 06:45:54;;;;;;;36.05;20.45;;;;;;;7.19;82.99;101036.72;4922965;29;20062;-91
2023/03/04 06:48:21;;;;;;;37.00;21.58;;;;;;;7.36;83.40;101070.06;4927396;29;20051;-91
2023/03/04 06:50:49;;;;;;;47.13;25.52;;;;;;;7.39;82.74;101065.28;4938419;28;20513;-92
2023/03/04 06:53:19;;;;;;;45.38;26.38;;;;;;;7.27;82.59;101036.06;4972205;28;20039;-93
2023/03/04 06:55:48;;;;;;;46.58;26.95;;;;;;;7.73;81.87;101061.56;4938936;28;20473;-93
2023/03/04 06:58:32;;;;;;;47.90;28.80;;;;;;;7.78;81.21;101070.88;4929591;29;20122;-92
2023/03/04 07:01:21;;;;;;;51.47;29.58;;;;;;;7.90;81.30;101057.41;4954962;28;20066;-91
2023/03/04 07:03:52;;;;;;;50.38;28.67;;;;;;;7.89;80.98;101035.16;4959380;28;20080;-91
2023/03/04 07:06:21;;;;;;;49.28;29.00;;;;;;;7.85;80.63;101028.38;4940267;28;20070;-91
2023/03/04 07:08:52;;;;;;;45.38;27.08;;;;;;;7.83;79.86;101008.91;4953410;28;20426;-92
2023/03/04 07:11:25;;;;;;;44.17;25.45;;;;;;;8.06;78.64;101041.69;4954011;28;20142;-93
2023/03/04 07:14:10;;;;;;;43.30;25.52;;;;;;;8.28;78.46;101013.84;4969331;28;20038;-93
2023/03/04 07:16:42;;;;;;;44.10;25.42;;;;;;;8.13;77.56;101042.84;4921243;28;20108;-91
2023/03/04 07:19:08;;;;;;;43.55;24.08;;;;;;;7.95;77.88;101009.66;4951245;28;20431;-92
2023/03/04 07:21:36;;;;;;;40.42;23.08;;;;;;;8.29;77.03;101036.97;4960669;28;20043;-92
2023/03/04 07:24:09;;;;;;;37.13;21.75;;;;;;;8.21;76.80;101013.53;4942167;28;20038;-92
2023/03/04 07:26:45;;;;;;;36.92;21.33;;;;;;;8.29;75.87;101007.50;4974920;28;20054;-91
2023/03/04 07:29:15;;;;;;;42.90;22.95;;;;;;;8.50;75.91;101012.81;4942310;28;20239;-92
2023/03/04 07:31:47;;;;;;;36.47;21.00;;;;;;;8.51;75.14;101019.00;4959382;28;20062;-91
2023/03/04 07:34:21;;;;;;;34.40;20.83;;;;;;;8.64;75.65;101008.88;4959002;29;20033;-92
2023/03/04 07:36:47;;;;;;;37.00;20.60;;;;;;;8.43;75.66;101022.38;4923457;28;20067;-92
2023/03/04 07:39:29;;;;;;;33.67;19.70;;;;;;;8.66;74.20;101034.53;4941562;28;20051;-92
2023/03/04 07:41:59;;;;;;;30.98;19.35;;;;;;;8.73;74.00;101001.81;4958039;28;20501;-93
2023/03/04 07:44:34;;;;;;;32.95;19.73;;;;;;;9.13;73.78;101024.94;4953114;28;20043;-94
2023/03/04 07:47:02;;;;;;;32.67;19.60;;;;;;;9.00;72.72;101022.56;4961165;28;20034;-93
2023/03/04 07:49:29;;;;;;;35.83;19.90;;;;;;;9.07;72.06;100994.19;4977031;28;20027;-83
2023/03/04 07:51:54;;;;;;;31.80;20.08;;;;;;;9.29;71.53;101006.41;4963443;28;20026;-89
2023/03/04 07:54:27;;;;;;;33.50;20.25;;;;;;;9.75;70.66;101015.47;4964657;28;20069;-89
2023/03/04 07:56:53;;;;;;;32.15;19.92;;;;;;;10.09;69.76;101012.22;4939525;29;20043;-90
2023/03/04 07:59:20;;;;;;;;;;;;;;;10.56;68.17;101030.94;4960269;28;20039;-89
2023/03/04 08:01:46;;;;;;;30.88;18.27;;;;;;;10.25;66.93;101006.19;4960211;28;19917;-89
2023/03/04 08:04:14;;;;;;;32.78;18.55;;;;;;;10.77;66.06;101018.06;4959901;28;20043;-90
2023/03/04 08:06:40;;;;;;;29.08;18.42;;;;;;;10.63;65.08;100988.13;4942661;28;20062;-89
2023/03/04 08:09:09;;;;;;;31.95;18.92;;;;;;;11.08;64.30;101014.97;4928624;28;20050;-88
2023/03/04 08:11:40;;;;;;;32.25;19.60;;;;;;;11.24;64.37;100998.09;4948216;28;20053;-90
2023/03/04 08:14:08;;;;;;;30.08;19.98;;;;;;;11.98;63.33;100998.53;4966783;28;20039;-87
2023/03/04 08:16:35;;;;;;;37.42;23.75;;;;;;;12.40;61.96;100995.81;4968934;28;20034;-87
2023/03/04 08:19:01;;;;;;;38.00;23.30;;;;;;;12.95;60.98;101015.16;4952096;29;20047;-90
2023/03/04 08:21:27;;;;;;;34.03;22.85;;;;;;;12.85;60.59;100999.97;4961211;28;20130;-89
2023/03/04 08:24:01;;;;;;;;;;;;;;;13.56;58.15;101018.34;4981702;28;20125;-89
2023/03/04 08:26:42;;;;;;;31.90;19.95;;;;;;;14.15;56.34;100983.69;4985720;28;19977;-89
2023/03/04 08:29:20;;;;;;;27.23;18.88;;;;;;;14.56;54.38;100995.16;4946675;28;20035;-87
2023/03/04 08:31:49;;;;;;;31.55;19.48;;;;;;;14.46;54.43;101009.88;4949070;28;20049;-89
2023/03/04 08:34:16;;;;;;;29.02;20.02;;;;;;;14.73;53.11;100990.47;4947900;28;20043;-90
2023/03/04 08:39:52;;;;;;;28.58;19.55;;;;;;;14.91;52.04;100995.59;4977171;28;20053;-89
2023/03/04 08:42:23;;;;;;;30.25;20.67;;;;;;;15.97;50.26;101014.56;4962911;28;20458;-90
2023/03/04 08:44:52;;;;;;;27.50;19.65;;;;;;;16.91;48.04;100990.19;4970906;28;20427;-90
2023/03/04 08:47:21;;;;;;;29.98;19.17;;;;;;;17.16;46.34;101003.34;4974136;28;20039;-89
2023/03/04 08:49:47;;;;;;;26.05;17.85;;;;;;;17.46;45.32;101004.84;4942600;28;20051;-88
2023/03/04 08:52:15;;;;;;;28.42;17.83;;;;;;;17.95;44.25;100996.84;4959594;28;20433;-88
2023/03/04 08:54:42;;;;;;;27.75;17.98;;;;;;;17.74;43.53;100976.81;4963313;28;20519;-89
2023/03/04 08:57:09;;;;;;;27.83;17.80;;;;;;;17.45;44.34;100989.59;4950109;28;20042;-91
2023/03/04 08:59:35;;;;;;;25.00;18.05;;;;;;;17.82;43.41;100971.25;4957868;28;20047;-90
2023/03/04 09:02:00;;;;;;;;;;;;;;;17.85;42.28;101017.06;4960717;28;20123;-90
2023/03/04 09:04:27;;;;;;;26.10;16.85;;;;;;;18.09;42.58;100974.91;4959520;28;19913;-91
2023/03/04 09:06:53;;;;;;;23.35;16.98;;;;;;;17.86;41.78;100988.84;4977334;28;20045;-89
2023/03/04 09:09:25;;;;;;;26.15;17.17;;;;;;;18.40;41.65;100967.28;4926380;28;20046;-90
2023/03/04 09:12:30;;;;;;;24.98;17.92;;;;;;;18.75;40.48;100966.13;4958277;28;20078;-90
2023/03/04 09:15:02;;;;;;;24.98;17.48;;;;;;;19.85;38.70;100983.91;4983788;28;20055;-89
2023/03/04 09:17:36;;;;;;;24.40;17.35;;;;;;;19.35;38.68;100968.03;4957901;28;20372;-88
2023/03/04 09:20:03;;;;;;;25.95;17.58;;;;;;;18.96;38.58;100956.09;4966100;28;20121;-89
2023/03/04 09:22:37;;;;;;;25.63;17.90;;;;;;;18.88;38.63;100948.16;4993792;28;20070;-88
2023/03/04 09:25:10;;;;;;;26.63;18.88;;;;;;;18.64;38.88;100977.63;4988387;28;20046;-89
2023/03/04 09:27:36;;;;;;;30.67;18.95;;;;;;;18.44;39.44;100950.34;4970204;28;20050;-88
2023/03/04 09:30:04;;;;;;;37.13;19.73;;;;;;;18.82;38.85;100943.53;4971625;28;20142;-90
2023/03/04 09:32:31;;;;;;;26.48;19.10;;;;;;;20.01;36.49;100932.41;4940324;28;20043;-91
2023/03/04 09:35:00;;;;;;;30.85;19.00;;;;;;;21.76;34.17;100965.63;4954826;28;20058;-90
2023/03/04 09:37:32;;;;;;;38.83;18.52;;;;;;;23.29;31.52;100933.31;4956725;28;20073;-91
2023/03/04 09:40:00;;;;;;;27.83;16.58;;;;;;;23.67;30.30;100934.72;4955555;28;20456;-89
2023/03/04 09:42:52;;;;;;;29.20;15.43;;;;;;;23.53;29.46;100959.69;4935558;28;20050;-89
2023/03/04 09:45:28;;;;;;;23.02;15.10;;;;;;;23.47;29.48;100940.59;4972549;28;20046;-91
2023/03/04 09:47:53;;;;;;;;;;;;;;;21.79;31.00;100957.78;4962790;28;20172;-90
2023/03/04 09:50:19;;;;;;;20.83;15.48;;;;;;;23.36;29.33;100910.16;4975600;28;20302;-91
2023/03/04 09:53:06;;;;;;;36.22;16.00;;;;;;;24.91;28.28;100936.91;4959187;28;20046;-90
2023/03/04 09:55:32;;;;;;;24.42;15.25;;;;;;;23.97;29.23;100926.31;4979647;28;20506;-91
2023/03/04 09:58:13;;;;;;;26.00;15.43;;;;;;;23.47;29.59;100926.88;4995763;28;20045;-90
2023/03/04 10:00:45;;;;;;;27.73;16.10;;;;;;;21.80;32.52;100909.38;4972445;28;20125;-90
2023/03/04 10:03:22;;;;;;;30.50;17.25;;;;;;;21.87;32.28;100929.28;4957757;28;20066;-91
2023/03/04 10:06:03;;;;;;;28.42;17.23;;;;;;;21.83;32.16;100900.72;4969056;28;20081;-90
2023/03/04 10:09:06;;;;;;;24.02;16.10;;;;;;;21.92;32.16;100888.38;4944556;28;20054;-90
2023/03/04 10:12:02;;;;;;;;;;;;;;;;;;;;;
2023/03/04 10:14:54;;;;;;;48.25;16.30;;;;;;;25.80;27.44;100900.22;5003912;28;20070;-91
2023/03/04 10:17:54;;;;;;;;;;;;;;;;;;;;;
2023/03/04 10:20:54;;;;;;;20.65;14.25;;;;;;;27.78;24.15;100879.28;4891320;29;20052;-90
2023/03/04 10:23:33;;;;;;;27.85;13.05;;;;;;;27.50;24.39;100883.28;4914786;29;20393;-91
2023/03/04 10:26:05;;;;;;;15.90;11.30;;;;;;;27.89;23.01;100885.69;4870210;29;20051;-90
2023/03/04 10:28:32;;;;;;;24.13;11.65;;;;;;;27.21;24.30;100874.59;4891217;29;20060;-91
2023/03/04 10:31:12;;;;;;;20.27;10.38;;;;;;;26.52;25.06;100873.44;4882372;29;20040;-90
2023/03/04 10:33:40;;;;;;;17.50;11.70;;;;;;;26.32;24.81;100854.81;4896181;29;20032;-90
2023/03/04 10:36:28;;;;;;;21.15;12.80;;;;;;;26.99;24.92;100893.97;4965081;28;20397;-90
2023/03/04 10:39:03;;;;;;;18.48;11.90;;;;;;;27.43;23.72;100868.91;4973514;28;20046;-90
2023/03/04 10:41:31;;;;;;;19.45;12.05;;;;;;;28.43;22.91;100860.38;4956312;28;20050;-89
2023/03/04 10:44:14;;;;;;;17.90;12.75;;;;;;;29.23;21.55;100870.88;4955644;28;20093;-89
2023/03/04 10:46:49;;;;;;;17.13;11.02;;;;;;;28.54;22.43;100833.56;4970340;28;20436;-91
2023/03/04 10:49:16;;;;;;;19.65;13.82;;;;;;;27.56;23.70;100849.91;4941048;28;20053;-90
2023/03/04 10:52:18;;;;;;;21.35;14.63;;;;;;;28.52;22.53;100841.34;4925085;28;20360;-89
2023/03/04 10:54:54;;;;;;;24.92;14.93;;;;;;;28.01;23.15;100827.44;4952182;28;20046;-89
2023/03/04 10:57:21;;;;;;;27.25;13.80;;;;;;;27.69;23.49;100828.41;4954511;28;20109;-87
2023/03/04 10:59:56;;;;;;;41.15;14.50;;;;;;;26.70;25.31;100837.25;4972228;28;20431;-89
2023/03/04 11:02:33;;;;;;;;;;;;;;;26.66;24.81;100830.59;4961079;28;20058;-89
2023/03/04 11:05:17;;;;;;;26.17;11.77;;;;;;;26.40;25.49;100823.19;4977261;28;19906;-90
2023/03/04 11:07:53;;;;;;;19.25;7.60;;;;;;;26.24;24.88;100797.41;4992576;28;20042;-90
2023/03/04 11:10:40;;;;;;;15.85;7.38;;;;;;;26.30;24.75;100799.13;4947454;28;20043;-89
2023/03/04 11:13:18;;;;;;;17.23;7.38;;;;;;;26.87;24.18;100792.94;4973199;28;20043;-90
2023/03/04 11:15:56;;;;;;;11.85;6.90;;;;;;;27.29;23.17;100807.81;4953524;28;20483;-89
2023/03/04 11:18:29;;;;;;;10.02;7.15;;;;;;;26.42;24.52;100793.44;4940044;28;20042;-89
2023/03/04 11:21:17;;;;;;;14.63;7.78;;;;;;;25.42;25.79;100772.56;4956209;28;20119;-90
2023/03/04 11:24:36;;;;;;;15.65;10.52;;;;;;;24.12;29.34;100797.56;4972037;28;20031;-90
2023/03/04 11:27:15;;;;;;;15.52;10.40;;;;;;;24.93;27.76;100786.19;4991104;28;20054;-88
2023/03/04 11:30:09;;;;;;;16.25;10.50;;;;;;;24.54;27.87;100757.88;4984063;28;20039;-90
2023/03/04 11:33:42;;;;;;;;;;;;;;;;;;;;;
2023/03/04 11:36:22;;;;;;;;;;;;;;;22.32;31.55;100776.41;4969746;28;20035;-89
2023/03/04 11:39:04;;;;;;;;;;;;;;;;;;;;;
2023/03/04 11:41:43;;;;;;;16.27;9.98;;;;;;;22.31;31.96;100733.66;4960753;28;20359;-91
2023/03/04 11:44:10;;;;;;;13.88;7.78;;;;;;;21.08;33.06;100744.00;4975300;28;20472;-89